sensor_id;sensor_type;location;lat;lon;timestamp;temperature;humidity
9975;DHT22;5028;50.974;4.968;2023-04-25T00:01:42;7.40;99.90
9975;DHT22;5028;50.974;4.968;2023-04-25T00:04:10;7.40;99.90
9975;DHT22;5028;50.974;4.968;2023-04-25T00:06:40;7.40;99.90
9975;DHT22;5028;50.974;4.968;2023-04-25T00:09:09;7.40;99.90
9975;DHT22;5028;50.974;4.968;2023-04-25T00:11:38;7.40;99.90
9975;DHT22;5028;50.974;4.968;2023-04-25T00:14:06;7.40;99.90
9975;DHT22;5028;50.974;4.968;2023-04-25T00:16:37;7.40;99.90
9975;DHT22;5028;50.974;4.968;2023-04-25T00:19:06;7.40;99.90
9975;DHT22;5028;50.974;4.968;2023-04-25T00:21:35;7.50;99.90
9975;DHT22;5028;50.974;4.968;2023-04-25T00:24:05;7.50;99.90
9975;DHT22;5028;50.974;4.968;2023-04-25T00:26:33;7.50;99.90
9975;DHT22;5028;50.974;4.968;2023-04-25T00:29:03;7.50;99.90
9975;DHT22;5028;50.974;4.968;2023-04-25T00:31:32;7.50;99.90
9975;DHT22;5028;50.974;4.968;2023-04-25T00:34:02;7.50;99.90
9975;DHT22;5028;50.974;4.968;2023-04-25T00:36:31;7.50;99.90
9975;DHT22;5028;50.974;4.968;2023-04-25T00:39:00;7.60;99.90
9975;DHT22;5028;50.974;4.968;2023-04-25T00:41:30;7.60;99.90
9975;DHT22;5028;50.974;4.968;2023-04-25T00:43:59;7.50;99.90
9975;DHT22;5028;50.974;4.968;2023-04-25T00:46:30;7.50;99.90
9975;DHT22;5028;50.974;4.968;2023-04-25T00:48:59;7.40;99.90
9975;DHT22;5028;50.974;4.968;2023-04-25T00:51:30;7.30;99.90
9975;DHT22;5028;50.974;4.968;2023-04-25T00:54:01;7.40;99.90
9975;DHT22;5028;50.974;4.968;2023-04-25T00:56:30;7.30;99.90
9975;DHT22;5028;50.974;4.968;2023-04-25T00:58:58;7.30;99.90
9975;DHT22;5028;50.974;4.968;2023-04-25T01:01:27;7.30;99.90
9975;DHT22;5028;50.974;4.968;2023-04-25T01:03:56;7.30;99.90
9975;DHT22;5028;50.974;4.968;2023-04-25T01:06:26;7.30;99.90
9975;DHT22;5028;50.974;4.968;2023-04-25T01:08:57;7.30;99.90
9975;DHT22;5028;50.974;4.968;2023-04-25T01:11:26;7.30;99.90
9975;DHT22;5028;50.974;4.968;2023-04-25T01:13:55;7.20;99.90
9975;DHT22;5028;50.974;4.968;2023-04-25T01:16:26;7.20;99.90
9975;DHT22;5028;50.974;4.968;2023-04-25T01:18:55;7.20;99.90
9975;DHT22;5028;50.974;4.968;2023-04-25T01:21:25;7.20;99.90
9975;DHT22;5028;50.974;4.968;2023-04-25T01:23:57;7.20;99.90
9975;DHT22;5028;50.974;4.968;2023-04-25T01:26:25;7.20;99.90
9975;DHT22;5028;50.974;4.968;2023-04-25T01:28:54;7.20;99.90
9975;DHT22;5028;50.974;4.968;2023-04-25T01:31:23;7.20;99.90
9975;DHT22;5028;50.974;4.968;2023-04-25T01:33:52;7.20;99.90
9975;DHT22;5028;50.974;4.968;2023-04-25T01:36:21;7.20;99.90
9975;DHT22;5028;50.974;4.968;2023-04-25T01:38:51;7.20;99.90
9975;DHT22;5028;50.974;4.968;2023-04-25T01:41:20;7.20;99.90
9975;DHT22;5028;50.974;4.968;2023-04-25T01:43:50;7.20;99.90
9975;DHT22;5028;50.974;4.968;2023-04-25T01:46:19;7.20;99.90
9975;DHT22;5028;50.974;4.968;2023-04-25T01:48:48;7.20;99.90
9975;DHT22;5028;50.974;4.968;2023-04-25T01:51:16;7.20;99.90
9975;DHT22;5028;50.974;4.968;2023-04-25T01:53:45;7.20;99.90
9975;DHT22;5028;50.974;4.968;2023-04-25T01:56:17;7.30;99.90
9975;DHT22;5028;50.974;4.968;2023-04-25T01:58:47;7.20;99.90
9975;DHT22;5028;50.974;4.968;2023-04-25T02:01:15;7.20;99.90
9975;DHT22;5028;50.974;4.968;2023-04-25T02:03:44;7.20;99.90
9975;DHT22;5028;50.974;4.968;2023-04-25T02:06:13;7.20;99.90
9975;DHT22;5028;50.974;4.968;2023-04-25T02:08:41;7.20;99.90
9975;DHT22;5028;50.974;4.968;2023-04-25T02:11:10;7.20;99.90
9975;DHT22;5028;50.974;4.968;2023-04-25T02:13:40;7.20;99.90
9975;DHT22;5028;50.974;4.968;2023-04-25T02:16:09;7.20;99.90
9975;DHT22;5028;50.974;4.968;2023-04-25T02:18:38;7.30;99.90
9975;DHT22;5028;50.974;4.968;2023-04-25T02:21:07;7.20;99.90
9975;DHT22;5028;50.974;4.968;2023-04-25T02:23:36;7.20;99.90
9975;DHT22;5028;50.974;4.968;2023-04-25T02:26:05;7.20;99.90
9975;DHT22;5028;50.974;4.968;2023-04-25T02:28:34;7.10;99.90
9975;DHT22;5028;50.974;4.968;2023-04-25T02:31:04;7.10;99.90
9975;DHT22;5028;50.974;4.968;2023-04-25T02:33:32;7.10;99.90
9975;DHT22;5028;50.974;4.968;2023-04-25T02:36:01;7.10;99.90
9975;DHT22;5028;50.974;4.968;2023-04-25T02:38:30;7.00;99.90
9975;DHT22;5028;50.974;4.968;2023-04-25T02:40:58;7.00;99.90
9975;DHT22;5028;50.974;4.968;2023-04-25T02:43:27;7.00;99.90
9975;DHT22;5028;50.974;4.968;2023-04-25T02:45:56;6.90;99.90
9975;DHT22;5028;50.974;4.968;2023-04-25T02:48:26;6.90;99.90
9975;DHT22;5028;50.974;4.968;2023-04-25T02:50:56;6.90;99.90
9975;DHT22;5028;50.974;4.968;2023-04-25T02:53:24;6.80;99.90
9975;DHT22;5028;50.974;4.968;2023-04-25T02:55:53;6.80;99.90
9975;DHT22;5028;50.974;4.968;2023-04-25T02:58:21;6.80;99.90
9975;DHT22;5028;50.974;4.968;2023-04-25T03:00:50;6.80;99.90
9975;DHT22;5028;50.974;4.968;2023-04-25T03:03:18;6.80;99.90
9975;DHT22;5028;50.974;4.968;2023-04-25T03:05:50;6.80;99.90
9975;DHT22;5028;50.974;4.968;2023-04-25T03:08:19;6.70;99.90
9975;DHT22;5028;50.974;4.968;2023-04-25T03:10:48;6.80;99.90
9975;DHT22;5028;50.974;4.968;2023-04-25T03:13:19;6.70;99.90
9975;DHT22;5028;50.974;4.968;2023-04-25T03:15:47;6.70;99.90
9975;DHT22;5028;50.974;4.968;2023-04-25T03:18:16;6.70;99.90
9975;DHT22;5028;50.974;4.968;2023-04-25T03:20:45;6.70;99.90
9975;DHT22;5028;50.974;4.968;2023-04-25T03:23:15;6.70;99.90
9975;DHT22;5028;50.974;4.968;2023-04-25T03:25:44;6.70;99.90
9975;DHT22;5028;50.974;4.968;2023-04-25T03:28:13;6.70;99.90
9975;DHT22;5028;50.974;4.968;2023-04-25T03:30:42;6.70;99.90
9975;DHT22;5028;50.974;4.968;2023-04-25T03:33:10;6.70;99.90
9975;DHT22;5028;50.974;4.968;2023-04-25T03:35:39;6.70;99.90
9975;DHT22;5028;50.974;4.968;2023-04-25T03:38:09;6.70;99.90
9975;DHT22;5028;50.974;4.968;2023-04-25T03:40:39;6.70;99.90
9975;DHT22;5028;50.974;4.968;2023-04-25T03:43:07;6.60;99.90
9975;DHT22;5028;50.974;4.968;2023-04-25T03:45:36;6.60;99.90
9975;DHT22;5028;50.974;4.968;2023-04-25T03:48:05;6.60;99.90
9975;DHT22;5028;50.974;4.968;2023-04-25T03:50:34;6.60;99.90
9975;DHT22;5028;50.974;4.968;2023-04-25T03:53:02;6.60;99.90
9975;DHT22;5028;50.974;4.968;2023-04-25T03:55:31;6.50;99.90
9975;DHT22;5028;50.974;4.968;2023-04-25T03:58:01;6.50;99.90
9975;DHT22;5028;50.974;4.968;2023-04-25T04:00:29;6.40;99.90
9975;DHT22;5028;50.974;4.968;2023-04-25T04:02:58;6.50;99.90
9975;DHT22;5028;50.974;4.968;2023-04-25T04:05:28;6.40;99.90
9975;DHT22;5028;50.974;4.968;2023-04-25T04:07:57;6.40;99.90
9975;DHT22;5028;50.974;4.968;2023-04-25T04:10:26;6.40;99.90
9975;DHT22;5028;50.974;4.968;2023-04-25T04:12:54;6.50;99.90
9975;DHT22;5028;50.974;4.968;2023-04-25T04:15:25;6.50;99.90
9975;DHT22;5028;50.974;4.968;2023-04-25T04:17:54;6.40;99.90
9975;DHT22;5028;50.974;4.968;2023-04-25T04:20:23;6.50;99.90
9975;DHT22;5028;50.974;4.968;2023-04-25T04:22:52;6.50;99.90
9975;DHT22;5028;50.974;4.968;2023-04-25T04:25:20;6.40;99.90
9975;DHT22;5028;50.974;4.968;2023-04-25T04:27:49;6.50;99.90
9975;DHT22;5028;50.974;4.968;2023-04-25T04:30:18;6.50;99.90
9975;DHT22;5028;50.974;4.968;2023-04-25T04:32:49;6.50;99.90
9975;DHT22;5028;50.974;4.968;2023-04-25T04:35:18;6.50;99.90
9975;DHT22;5028;50.974;4.968;2023-04-25T04:37:47;6.60;99.90
9975;DHT22;5028;50.974;4.968;2023-04-25T04:40:16;6.50;99.90
9975;DHT22;5028;50.974;4.968;2023-04-25T04:42:45;6.50;99.90
9975;DHT22;5028;50.974;4.968;2023-04-25T04:45:14;6.60;99.90
9975;DHT22;5028;50.974;4.968;2023-04-25T04:47:44;6.60;99.90
9975;DHT22;5028;50.974;4.968;2023-04-25T04:50:14;6.60;99.90
9975;DHT22;5028;50.974;4.968;2023-04-25T04:52:43;6.60;99.90
9975;DHT22;5028;50.974;4.968;2023-04-25T04:55:12;6.60;99.90
9975;DHT22;5028;50.974;4.968;2023-04-25T04:57:40;6.60;99.90
9975;DHT22;5028;50.974;4.968;2023-04-25T05:00:11;6.60;99.90
9975;DHT22;5028;50.974;4.968;2023-04-25T05:02:40;6.60;99.90
9975;DHT22;5028;50.974;4.968;2023-04-25T05:05:09;6.60;99.90
9975;DHT22;5028;50.974;4.968;2023-04-25T05:07:39;6.60;99.90
9975;DHT22;5028;50.974;4.968;2023-04-25T05:10:08;6.50;99.90
9975;DHT22;5028;50.974;4.968;2023-04-25T05:12:37;6.60;99.90
9975;DHT22;5028;50.974;4.968;2023-04-25T05:15:06;6.60;99.90
9975;DHT22;5028;50.974;4.968;2023-04-25T05:17:36;6.60;99.90
9975;DHT22;5028;50.974;4.968;2023-04-25T05:20:06;6.60;99.90
9975;DHT22;5028;50.974;4.968;2023-04-25T05:22:38;6.60;99.90
9975;DHT22;5028;50.974;4.968;2023-04-25T05:25:08;6.70;99.90
9975;DHT22;5028;50.974;4.968;2023-04-25T05:27:37;6.70;99.90
9975;DHT22;5028;50.974;4.968;2023-04-25T05:30:07;6.70;99.90
9975;DHT22;5028;50.974;4.968;2023-04-25T05:32:36;6.60;99.90
9975;DHT22;5028;50.974;4.968;2023-04-25T05:35:06;6.60;99.90
9975;DHT22;5028;50.974;4.968;2023-04-25T05:37:35;6.70;99.90
9975;DHT22;5028;50.974;4.968;2023-04-25T05:40:08;6.70;99.90
9975;DHT22;5028;50.974;4.968;2023-04-25T05:42:37;6.70;99.90
9975;DHT22;5028;50.974;4.968;2023-04-25T05:45:06;6.70;99.90
9975;DHT22;5028;50.974;4.968;2023-04-25T05:47:35;6.70;99.90
9975;DHT22;5028;50.974;4.968;2023-04-25T05:50:06;6.80;99.90
9975;DHT22;5028;50.974;4.968;2023-04-25T05:52:35;6.80;99.90
9975;DHT22;5028;50.974;4.968;2023-04-25T05:55:06;6.80;99.90
9975;DHT22;5028;50.974;4.968;2023-04-25T05:57:35;6.90;99.90
9975;DHT22;5028;50.974;4.968;2023-04-25T06:00:04;6.90;99.90
9975;DHT22;5028;50.974;4.968;2023-04-25T06:02:36;6.80;99.90
9975;DHT22;5028;50.974;4.968;2023-04-25T06:05:05;6.90;99.90
9975;DHT22;5028;50.974;4.968;2023-04-25T06:07:34;6.90;99.90
9975;DHT22;5028;50.974;4.968;2023-04-25T06:10:04;6.90;99.90
9975;DHT22;5028;50.974;4.968;2023-04-25T06:12:35;7.00;99.90
9975;DHT22;5028;50.974;4.968;2023-04-25T06:15:04;6.80;99.90
9975;DHT22;5028;50.974;4.968;2023-04-25T06:17:52;6.80;99.90
9975;DHT22;5028;50.974;4.968;2023-04-25T06:20:21;6.90;99.90
9975;DHT22;5028;50.974;4.968;2023-04-25T06:22:52;7.00;99.90
9975;DHT22;5028;50.974;4.968;2023-04-25T06:25:20;6.90;99.90
9975;DHT22;5028;50.974;4.968;2023-04-25T06:27:50;7.00;99.90
9975;DHT22;5028;50.974;4.968;2023-04-25T06:30:19;7.00;99.90
9975;DHT22;5028;50.974;4.968;2023-04-25T06:32:50;7.10;99.90
9975;DHT22;5028;50.974;4.968;2023-04-25T06:35:20;7.20;99.90
9975;DHT22;5028;50.974;4.968;2023-04-25T06:37:48;7.30;99.90
9975;DHT22;5028;50.974;4.968;2023-04-25T06:40:17;7.50;99.90
9975;DHT22;5028;50.974;4.968;2023-04-25T06:42:45;7.40;99.90
9975;DHT22;5028;50.974;4.968;2023-04-25T06:45:17;7.40;99.90
9975;DHT22;5028;50.974;4.968;2023-04-25T06:47:45;7.50;99.90
9975;DHT22;5028;50.974;4.968;2023-04-25T06:50:14;7.50;99.90
9975;DHT22;5028;50.974;4.968;2023-04-25T06:52:43;7.50;99.90
9975;DHT22;5028;50.974;4.968;2023-04-25T06:55:11;7.50;99.90
9975;DHT22;5028;50.974;4.968;2023-04-25T06:57:40;7.40;99.90
9975;DHT22;5028;50.974;4.968;2023-04-25T07:00:09;7.40;99.90
9975;DHT22;5028;50.974;4.968;2023-04-25T07:02:39;7.50;99.90
9975;DHT22;5028;50.974;4.968;2023-04-25T07:05:09;7.60;99.90
9975;DHT22;5028;50.974;4.968;2023-04-25T07:07:38;7.70;99.90
9975;DHT22;5028;50.974;4.968;2023-04-25T07:10:06;7.60;99.90
9975;DHT22;5028;50.974;4.968;2023-04-25T07:12:35;7.70;99.90
9975;DHT22;5028;50.974;4.968;2023-04-25T07:15:04;7.70;99.90
9975;DHT22;5028;50.974;4.968;2023-04-25T07:17:35;7.80;99.90
9975;DHT22;5028;50.974;4.968;2023-04-25T07:20:06;7.80;99.90
9975;DHT22;5028;50.974;4.968;2023-04-25T07:22:36;7.90;99.90
9975;DHT22;5028;50.974;4.968;2023-04-25T07:25:05;7.80;99.90
9975;DHT22;5028;50.974;4.968;2023-04-25T07:27:35;7.70;99.90
9975;DHT22;5028;50.974;4.968;2023-04-25T07:30:04;7.70;99.90
9975;DHT22;5028;50.974;4.968;2023-04-25T07:32:33;7.80;99.90
9975;DHT22;5028;50.974;4.968;2023-04-25T07:35:02;7.90;99.90
9975;DHT22;5028;50.974;4.968;2023-04-25T07:37:33;8.00;99.90
9975;DHT22;5028;50.974;4.968;2023-04-25T07:40:02;8.00;99.90
9975;DHT22;5028;50.974;4.968;2023-04-25T07:42:32;8.00;99.90
9975;DHT22;5028;50.974;4.968;2023-04-25T07:45:01;8.00;99.90
9975;DHT22;5028;50.974;4.968;2023-04-25T07:47:29;8.00;99.90
9975;DHT22;5028;50.974;4.968;2023-04-25T07:49:58;7.90;99.90
9975;DHT22;5028;50.974;4.968;2023-04-25T07:52:27;8.00;99.90
9975;DHT22;5028;50.974;4.968;2023-04-25T07:54:57;8.00;99.90
9975;DHT22;5028;50.974;4.968;2023-04-25T07:57:27;8.10;99.90
9975;DHT22;5028;50.974;4.968;2023-04-25T07:59:55;8.20;99.90
9975;DHT22;5028;50.974;4.968;2023-04-25T08:02:24;8.20;99.90
9975;DHT22;5028;50.974;4.968;2023-04-25T08:04:55;8.10;99.90
9975;DHT22;5028;50.974;4.968;2023-04-25T08:07:24;8.10;99.90
9975;DHT22;5028;50.974;4.968;2023-04-25T08:09:54;8.00;99.90
9975;DHT22;5028;50.974;4.968;2023-04-25T08:12:24;8.00;99.90
9975;DHT22;5028;50.974;4.968;2023-04-25T08:14:52;8.10;99.90
9975;DHT22;5028;50.974;4.968;2023-04-25T08:17:21;8.10;99.90
9975;DHT22;5028;50.974;4.968;2023-04-25T08:19:50;8.00;99.90
9975;DHT22;5028;50.974;4.968;2023-04-25T08:22:19;7.80;99.90
9975;DHT22;5028;50.974;4.968;2023-04-25T08:24:48;7.80;99.90
9975;DHT22;5028;50.974;4.968;2023-04-25T08:27:17;7.70;99.90
9975;DHT22;5028;50.974;4.968;2023-04-25T08:29:49;7.70;99.90
9975;DHT22;5028;50.974;4.968;2023-04-25T08:32:18;7.80;99.90
9975;DHT22;5028;50.974;4.968;2023-04-25T08:34:48;7.90;99.90
9975;DHT22;5028;50.974;4.968;2023-04-25T08:37:18;8.00;99.90
9975;DHT22;5028;50.974;4.968;2023-04-25T08:39:47;8.00;99.90
9975;DHT22;5028;50.974;4.968;2023-04-25T08:42:19;8.10;99.90
9975;DHT22;5028;50.974;4.968;2023-04-25T08:44:53;8.10;99.90
9975;DHT22;5028;50.974;4.968;2023-04-25T08:47:22;8.20;99.90
9975;DHT22;5028;50.974;4.968;2023-04-25T08:49:52;8.30;99.90
9975;DHT22;5028;50.974;4.968;2023-04-25T08:52:23;8.40;99.90
9975;DHT22;5028;50.974;4.968;2023-04-25T08:54:53;8.50;99.90
9975;DHT22;5028;50.974;4.968;2023-04-25T08:57:22;8.60;99.90
9975;DHT22;5028;50.974;4.968;2023-04-25T08:59:54;8.70;99.90
9975;DHT22;5028;50.974;4.968;2023-04-25T09:02:24;8.80;99.90
9975;DHT22;5028;50.974;4.968;2023-04-25T09:04:54;8.90;99.90
9975;DHT22;5028;50.974;4.968;2023-04-25T09:07:24;9.00;99.90
9975;DHT22;5028;50.974;4.968;2023-04-25T09:09:52;9.40;99.90
9975;DHT22;5028;50.974;4.968;2023-04-25T09:12:21;9.90;99.90
9975;DHT22;5028;50.974;4.968;2023-04-25T09:15:06;10.60;99.90
9975;DHT22;5028;50.974;4.968;2023-04-25T09:17:35;11.20;99.90
9975;DHT22;5028;50.974;4.968;2023-04-25T09:20:09;11.00;99.90
9975;DHT22;5028;50.974;4.968;2023-04-25T09:22:38;10.80;99.90
9975;DHT22;5028;50.974;4.968;2023-04-25T09:25:09;11.10;99.90
9975;DHT22;5028;50.974;4.968;2023-04-25T09:27:49;11.20;99.90
9975;DHT22;5028;50.974;4.968;2023-04-25T09:30:29;10.30;99.90
9975;DHT22;5028;50.974;4.968;2023-04-25T09:33:04;9.90;99.90
9975;DHT22;5028;50.974;4.968;2023-04-25T09:35:37;10.00;99.90
9975;DHT22;5028;50.974;4.968;2023-04-25T09:38:11;9.60;99.90
9975;DHT22;5028;50.974;4.968;2023-04-25T09:40:41;9.50;99.90
9975;DHT22;5028;50.974;4.968;2023-04-25T09:43:19;9.40;99.90
9975;DHT22;5028;50.974;4.968;2023-04-25T09:45:51;9.40;99.90
9975;DHT22;5028;50.974;4.968;2023-04-25T09:48:26;9.20;99.90
9975;DHT22;5028;50.974;4.968;2023-04-25T09:51:05;9.10;99.90
9975;DHT22;5028;50.974;4.968;2023-04-25T09:53:34;9.00;99.90
9975;DHT22;5028;50.974;4.968;2023-04-25T09:56:05;8.90;99.90
9975;DHT22;5028;50.974;4.968;2023-04-25T09:58:35;8.80;99.90
9975;DHT22;5028;50.974;4.968;2023-04-25T10:01:07;8.80;99.90
9975;DHT22;5028;50.974;4.968;2023-04-25T10:03:37;9.00;99.90
9975;DHT22;5028;50.974;4.968;2023-04-25T10:06:08;9.30;99.90
9975;DHT22;5028;50.974;4.968;2023-04-25T10:08:38;9.30;99.90
9975;DHT22;5028;50.974;4.968;2023-04-25T10:11:08;9.20;99.90
9975;DHT22;5028;50.974;4.968;2023-04-25T10:13:38;9.20;99.90
9975;DHT22;5028;50.974;4.968;2023-04-25T10:16:09;9.20;99.90
9975;DHT22;5028;50.974;4.968;2023-04-25T10:18:38;9.30;99.90
9975;DHT22;5028;50.974;4.968;2023-04-25T10:21:07;9.30;99.90
9975;DHT22;5028;50.974;4.968;2023-04-25T10:23:36;9.30;99.90
9975;DHT22;5028;50.974;4.968;2023-04-25T10:26:06;9.20;99.90
9975;DHT22;5028;50.974;4.968;2023-04-25T10:28:55;9.20;99.90
9975;DHT22;5028;50.974;4.968;2023-04-25T10:31:26;9.50;99.90
9975;DHT22;5028;50.974;4.968;2023-04-25T10:33:59;9.80;99.90
9975;DHT22;5028;50.974;4.968;2023-04-25T10:36:31;10.20;99.90
9975;DHT22;5028;50.974;4.968;2023-04-25T10:39:04;10.50;99.90
9975;DHT22;5028;50.974;4.968;2023-04-25T10:41:53;10.70;99.90
9975;DHT22;5028;50.974;4.968;2023-04-25T10:44:26;10.60;99.90
9975;DHT22;5028;50.974;4.968;2023-04-25T10:46:57;10.90;99.90
9975;DHT22;5028;50.974;4.968;2023-04-25T10:49:31;11.00;99.90
9975;DHT22;5028;50.974;4.968;2023-04-25T10:52:18;11.20;99.90
9975;DHT22;5028;50.974;4.968;2023-04-25T10:54:47;11.30;99.90
9975;DHT22;5028;50.974;4.968;2023-04-25T10:57:39;11.30;99.90
9975;DHT22;5028;50.974;4.968;2023-04-25T11:00:12;11.30;99.90
9975;DHT22;5028;50.974;4.968;2023-04-25T11:02:45;11.50;99.90
9975;DHT22;5028;50.974;4.968;2023-04-25T11:05:23;11.50;99.90
9975;DHT22;5028;50.974;4.968;2023-04-25T11:08:01;11.30;99.90
9975;DHT22;5028;50.974;4.968;2023-04-25T11:10:34;11.50;99.90
9975;DHT22;5028;50.974;4.968;2023-04-25T11:13:04;11.60;99.90
9975;DHT22;5028;50.974;4.968;2023-04-25T11:15:32;11.70;99.90
9975;DHT22;5028;50.974;4.968;2023-04-25T11:18:03;11.80;99.90
9975;DHT22;5028;50.974;4.968;2023-04-25T11:20:31;11.80;99.90
9975;DHT22;5028;50.974;4.968;2023-04-25T11:23:00;12.20;99.90
9975;DHT22;5028;50.974;4.968;2023-04-25T11:25:30;12.20;99.90
9975;DHT22;5028;50.974;4.968;2023-04-25T11:28:01;12.10;99.90
9975;DHT22;5028;50.974;4.968;2023-04-25T11:30:29;12.10;99.90
9975;DHT22;5028;50.974;4.968;2023-04-25T11:32:58;11.90;99.90
9975;DHT22;5028;50.974;4.968;2023-04-25T11:35:28;11.70;99.90
9975;DHT22;5028;50.974;4.968;2023-04-25T11:37:57;11.50;99.90
9975;DHT22;5028;50.974;4.968;2023-04-25T11:40:26;11.50;99.90
9975;DHT22;5028;50.974;4.968;2023-04-25T11:42:55;11.30;99.90
9975;DHT22;5028;50.974;4.968;2023-04-25T11:45:23;11.00;99.90
9975;DHT22;5028;50.974;4.968;2023-04-25T11:47:52;10.90;99.90
9975;DHT22;5028;50.974;4.968;2023-04-25T11:50:21;10.70;99.90
9975;DHT22;5028;50.974;4.968;2023-04-25T11:52:51;10.60;99.90
9975;DHT22;5028;50.974;4.968;2023-04-25T11:55:25;10.00;99.90
9975;DHT22;5028;50.974;4.968;2023-04-25T11:57:53;9.70;99.90
9975;DHT22;5028;50.974;4.968;2023-04-25T12:00:23;9.30;99.90
9975;DHT22;5028;50.974;4.968;2023-04-25T12:02:54;9.30;99.90
9975;DHT22;5028;50.974;4.968;2023-04-25T12:05:28;9.40;99.90
9975;DHT22;5028;50.974;4.968;2023-04-25T12:08:11;9.60;99.90
9975;DHT22;5028;50.974;4.968;2023-04-25T12:10:41;9.60;99.90
9975;DHT22;5028;50.974;4.968;2023-04-25T12:13:21;9.60;99.90
9975;DHT22;5028;50.974;4.968;2023-04-25T12:15:50;9.60;99.90
9975;DHT22;5028;50.974;4.968;2023-04-25T12:18:19;9.80;99.90
9975;DHT22;5028;50.974;4.968;2023-04-25T12:20:49;9.90;99.90
9975;DHT22;5028;50.974;4.968;2023-04-25T12:23:26;10.20;99.90
9975;DHT22;5028;50.974;4.968;2023-04-25T12:25:56;10.60;99.90
9975;DHT22;5028;50.974;4.968;2023-04-25T12:28:25;11.00;99.90
9975;DHT22;5028;50.974;4.968;2023-04-25T12:30:58;11.20;99.90
9975;DHT22;5028;50.974;4.968;2023-04-25T12:33:29;11.70;99.90
9975;DHT22;5028;50.974;4.968;2023-04-25T12:35:59;11.80;99.90
9975;DHT22;5028;50.974;4.968;2023-04-25T12:38:37;11.60;99.90
9975;DHT22;5028;50.974;4.968;2023-04-25T12:41:06;11.30;99.90
9975;DHT22;5028;50.974;4.968;2023-04-25T12:43:35;10.80;99.90
9975;DHT22;5028;50.974;4.968;2023-04-25T12:46:04;10.60;99.90
9975;DHT22;5028;50.974;4.968;2023-04-25T12:48:33;10.40;99.90
9975;DHT22;5028;50.974;4.968;2023-04-25T12:51:02;10.30;99.90
9975;DHT22;5028;50.974;4.968;2023-04-25T12:53:31;10.30;99.90
9975;DHT22;5028;50.974;4.968;2023-04-25T12:56:03;10.20;99.90
9975;DHT22;5028;50.974;4.968;2023-04-25T12:58:32;10.20;99.90
9975;DHT22;5028;50.974;4.968;2023-04-25T13:01:01;10.10;99.90
9975;DHT22;5028;50.974;4.968;2023-04-25T13:03:32;10.00;99.90
9975;DHT22;5028;50.974;4.968;2023-04-25T13:06:02;10.10;99.90
9975;DHT22;5028;50.974;4.968;2023-04-25T13:08:30;10.10;99.90
9975;DHT22;5028;50.974;4.968;2023-04-25T13:10:59;10.00;99.90
9975;DHT22;5028;50.974;4.968;2023-04-25T13:13:30;10.00;99.90
9975;DHT22;5028;50.974;4.968;2023-04-25T13:15:59;10.20;99.90
9975;DHT22;5028;50.974;4.968;2023-04-25T13:18:28;10.60;99.90
9975;DHT22;5028;50.974;4.968;2023-04-25T13:20:57;11.30;99.90
9975;DHT22;5028;50.974;4.968;2023-04-25T13:23:27;12.00;99.90
9975;DHT22;5028;50.974;4.968;2023-04-25T13:25:57;11.80;99.90
9975;DHT22;5028;50.974;4.968;2023-04-25T13:28:26;11.30;99.90
9975;DHT22;5028;50.974;4.968;2023-04-25T13:30:56;11.10;99.90
9975;DHT22;5028;50.974;4.968;2023-04-25T13:33:25;11.20;99.90
9975;DHT22;5028;50.974;4.968;2023-04-25T13:35:54;11.00;99.90
9975;DHT22;5028;50.974;4.968;2023-04-25T13:38:24;10.90;99.90
9975;DHT22;5028;50.974;4.968;2023-04-25T13:40:53;10.80;99.90
9975;DHT22;5028;50.974;4.968;2023-04-25T13:43:22;10.70;99.90
9975;DHT22;5028;50.974;4.968;2023-04-25T13:45:51;10.60;99.90
9975;DHT22;5028;50.974;4.968;2023-04-25T13:48:21;10.60;99.90
9975;DHT22;5028;50.974;4.968;2023-04-25T13:50:50;10.60;99.90
9975;DHT22;5028;50.974;4.968;2023-04-25T13:53:19;10.60;99.90
9975;DHT22;5028;50.974;4.968;2023-04-25T13:55:48;11.10;99.90
9975;DHT22;5028;50.974;4.968;2023-04-25T13:58:16;11.50;99.90
9975;DHT22;5028;50.974;4.968;2023-04-25T14:00:47;11.70;99.90
9975;DHT22;5028;50.974;4.968;2023-04-25T14:03:15;11.90;99.90
9975;DHT22;5028;50.974;4.968;2023-04-25T14:05:45;12.00;99.90
9975;DHT22;5028;50.974;4.968;2023-04-25T14:08:14;12.20;99.90
9975;DHT22;5028;50.974;4.968;2023-04-25T14:10:43;12.10;99.90
9975;DHT22;5028;50.974;4.968;2023-04-25T14:13:11;12.00;99.90
9975;DHT22;5028;50.974;4.968;2023-04-25T14:15:40;12.20;99.90
9975;DHT22;5028;50.974;4.968;2023-04-25T14:18:08;12.40;99.90
9975;DHT22;5028;50.974;4.968;2023-04-25T14:20:37;12.00;99.90
9975;DHT22;5028;50.974;4.968;2023-04-25T14:23:08;11.70;99.90
9975;DHT22;5028;50.974;4.968;2023-04-25T14:25:36;11.40;99.90
9975;DHT22;5028;50.974;4.968;2023-04-25T14:28:05;11.20;99.90
9975;DHT22;5028;50.974;4.968;2023-04-25T14:30:33;11.10;99.90
9975;DHT22;5028;50.974;4.968;2023-04-25T14:33:02;10.90;99.90
9975;DHT22;5028;50.974;4.968;2023-04-25T14:35:32;10.80;99.90
9975;DHT22;5028;50.974;4.968;2023-04-25T14:38:00;10.60;99.90
9975;DHT22;5028;50.974;4.968;2023-04-25T14:40:31;10.70;99.90
9975;DHT22;5028;50.974;4.968;2023-04-25T14:43:00;10.60;99.90
9975;DHT22;5028;50.974;4.968;2023-04-25T14:45:28;10.60;99.90
9975;DHT22;5028;50.974;4.968;2023-04-25T14:47:57;10.70;99.90
9975;DHT22;5028;50.974;4.968;2023-04-25T14:50:26;10.80;99.90
9975;DHT22;5028;50.974;4.968;2023-04-25T14:52:56;10.80;99.90
9975;DHT22;5028;50.974;4.968;2023-04-25T14:55:26;10.80;99.90
9975;DHT22;5028;50.974;4.968;2023-04-25T14:57:56;10.80;99.90
9975;DHT22;5028;50.974;4.968;2023-04-25T15:00:25;10.80;99.90
9975;DHT22;5028;50.974;4.968;2023-04-25T15:02:54;10.90;99.90
9975;DHT22;5028;50.974;4.968;2023-04-25T15:05:24;10.90;99.90
9975;DHT22;5028;50.974;4.968;2023-04-25T15:07:52;10.90;99.90
9975;DHT22;5028;50.974;4.968;2023-04-25T15:10:22;11.00;99.90
9975;DHT22;5028;50.974;4.968;2023-04-25T15:12:51;11.10;99.90
9975;DHT22;5028;50.974;4.968;2023-04-25T15:15:21;11.20;99.90
9975;DHT22;5028;50.974;4.968;2023-04-25T15:17:53;11.20;99.90
9975;DHT22;5028;50.974;4.968;2023-04-25T15:20:25;11.20;99.90
9975;DHT22;5028;50.974;4.968;2023-04-25T15:22:54;11.40;99.90
9975;DHT22;5028;50.974;4.968;2023-04-25T15:25:23;11.30;99.90
9975;DHT22;5028;50.974;4.968;2023-04-25T15:27:52;11.10;99.90
9975;DHT22;5028;50.974;4.968;2023-04-25T15:30:23;11.20;99.90
9975;DHT22;5028;50.974;4.968;2023-04-25T15:32:52;11.20;99.90
9975;DHT22;5028;50.974;4.968;2023-04-25T15:35:21;11.20;99.90
9975;DHT22;5028;50.974;4.968;2023-04-25T15:37:49;11.20;99.90
9975;DHT22;5028;50.974;4.968;2023-04-25T15:40:19;11.30;99.90
9975;DHT22;5028;50.974;4.968;2023-04-25T15:42:49;11.40;99.90
9975;DHT22;5028;50.974;4.968;2023-04-25T15:45:23;11.30;99.90
9975;DHT22;5028;50.974;4.968;2023-04-25T15:47:55;11.40;99.90
9975;DHT22;5028;50.974;4.968;2023-04-25T15:50:24;11.30;99.90
9975;DHT22;5028;50.974;4.968;2023-04-25T15:52:53;11.30;99.90
9975;DHT22;5028;50.974;4.968;2023-04-25T15:55:22;11.30;99.90
9975;DHT22;5028;50.974;4.968;2023-04-25T15:57:52;11.20;99.90
9975;DHT22;5028;50.974;4.968;2023-04-25T16:00:21;11.00;99.90
9975;DHT22;5028;50.974;4.968;2023-04-25T16:02:50;10.80;99.90
9975;DHT22;5028;50.974;4.968;2023-04-25T16:05:20;10.70;99.90
9975;DHT22;5028;50.974;4.968;2023-04-25T16:07:49;10.50;99.90
9975;DHT22;5028;50.974;4.968;2023-04-25T16:10:19;10.60;99.90
9975;DHT22;5028;50.974;4.968;2023-04-25T16:12:49;10.60;99.90
9975;DHT22;5028;50.974;4.968;2023-04-25T16:15:17;10.80;99.90
9975;DHT22;5028;50.974;4.968;2023-04-25T16:17:46;10.90;99.90
9975;DHT22;5028;50.974;4.968;2023-04-25T16:20:15;11.00;99.90
9975;DHT22;5028;50.974;4.968;2023-04-25T16:22:44;11.10;99.90
9975;DHT22;5028;50.974;4.968;2023-04-25T16:25:13;11.10;99.90
9975;DHT22;5028;50.974;4.968;2023-04-25T16:27:42;11.00;99.90
9975;DHT22;5028;50.974;4.968;2023-04-25T16:30:11;11.00;99.90